createdAt,value
2022-11-03T00:01:10.917Z,3.91
2022-11-03T00:03:38.220Z,4.00
2022-11-03T00:06:05.197Z,3.99
2022-11-03T00:08:32.071Z,3.87
2022-11-03T00:11:03.378Z,4.01
2022-11-03T00:13:30.282Z,4.07
2022-11-03T00:15:57.528Z,3.94
2022-11-03T00:18:24.480Z,3.93
2022-11-03T00:20:58.543Z,4.01
2022-11-03T00:23:27.099Z,3.80
2022-11-03T00:25:54.410Z,3.72
2022-11-03T00:28:21.424Z,3.85
2022-11-03T00:30:48.591Z,3.94
2022-11-03T00:33:15.487Z,4.01
2022-11-03T00:35:42.762Z,3.99
2022-11-03T00:38:09.631Z,4.05
2022-11-03T00:40:36.895Z,4.13
2022-11-03T00:43:04.167Z,4.24
2022-11-03T00:45:31.307Z,4.14
2022-11-03T00:48:17.259Z,4.27
2022-11-03T00:50:44.214Z,4.28
2022-11-03T00:53:11.740Z,4.23
2022-11-03T00:55:38.656Z,4.36
2022-11-03T00:58:06.878Z,4.40
2022-11-03T01:00:33.759Z,4.51
2022-11-03T01:03:01.139Z,4.43
2022-11-03T01:05:46.608Z,4.34
2022-11-03T01:08:13.874Z,4.43
2022-11-03T01:11:00.634Z,4.33
2022-11-03T01:13:27.883Z,4.17
2022-11-03T01:16:01.644Z,4.13
2022-11-03T01:18:28.963Z,4.02
2022-11-03T01:23:24.427Z,3.93
2022-11-03T01:25:52.312Z,3.87
2022-11-03T01:28:19.527Z,3.87
2022-11-03T01:30:46.503Z,3.81
2022-11-03T01:33:15.057Z,3.52
2022-11-03T01:35:42.879Z,3.35
2022-11-03T01:38:10.115Z,3.36
2022-11-03T01:40:37.032Z,3.23
2022-11-03T01:43:36.570Z,3.17
2022-11-03T01:46:12.494Z,3.13
2022-11-03T01:48:43.125Z,3.09
2022-11-03T01:51:13.430Z,3.19
2022-11-03T01:53:43.706Z,3.07
2022-11-03T01:56:11.819Z,3.19
2022-11-03T01:58:40.123Z,3.14
2022-11-03T02:01:07.516Z,3.31
2022-11-03T02:03:38.110Z,3.28
2022-11-03T02:06:06.270Z,3.40
2022-11-03T02:08:46.563Z,3.45
2022-11-03T02:11:32.907Z,3.38
2022-11-03T02:13:59.880Z,3.34
2022-11-03T02:16:29.318Z,3.30
2022-11-03T02:18:57.891Z,3.25
2022-11-03T02:21:25.143Z,3.20
2022-11-03T02:24:15.950Z,3.09
2022-11-03T02:26:44.726Z,3.10
2022-11-03T02:29:11.645Z,3.12
2022-11-03T02:31:42.149Z,3.25
2022-11-03T02:34:14.459Z,3.22
2022-11-03T02:36:46.432Z,3.17
2022-11-03T02:39:16.337Z,3.08
2022-11-03T02:41:44.116Z,2.96
2022-11-03T02:44:18.359Z,2.91
2022-11-03T02:46:47.289Z,2.79
2022-11-03T02:49:14.601Z,2.70
2022-11-03T02:51:42.125Z,2.67
2022-11-03T02:54:14.006Z,2.67
2022-11-03T02:56:47.106Z,2.70
2022-11-03T02:59:16.800Z,2.61
2022-11-03T03:01:48.790Z,2.56
2022-11-03T03:04:35.617Z,2.47
2022-11-03T03:07:04.718Z,2.34
2022-11-03T03:09:37.460Z,2.30
2022-11-03T03:12:05.182Z,2.29
2022-11-03T03:14:35.803Z,2.26
2022-11-03T03:17:10.368Z,2.27
2022-11-03T03:19:44.958Z,2.23
2022-11-03T03:22:22.037Z,2.26
2022-11-03T03:25:04.751Z,2.22
2022-11-03T03:27:34.048Z,2.18
2022-11-03T03:30:06.130Z,2.11
2022-11-03T03:32:36.955Z,2.03
2022-11-03T03:35:07.741Z,2.07
2022-11-03T03:37:37.443Z,2.20
2022-11-03T03:40:07.590Z,2.40
2022-11-03T03:42:36.527Z,2.62
2022-11-03T03:45:04.403Z,2.78
2022-11-03T03:47:32.544Z,2.85
2022-11-03T03:50:00.751Z,2.92
2022-11-03T03:52:29.106Z,2.86
2022-11-03T03:54:56.804Z,2.89
2022-11-03T03:57:24.794Z,2.91
2022-11-03T03:59:52.198Z,3.13
2022-11-03T04:02:19.237Z,3.25
2022-11-03T04:04:46.449Z,3.13
2022-11-03T04:07:32.587Z,3.02
2022-11-03T04:09:59.490Z,3.06
2022-11-03T04:12:45.404Z,3.05
2022-11-03T04:15:31.587Z,2.93
2022-11-03T04:18:17.552Z,3.01
2022-11-03T04:21:02.871Z,3.12
2022-11-03T04:23:30.031Z,3.13
2022-11-03T04:25:57.423Z,3.12
2022-11-03T04:28:25.908Z,3.12
2022-11-03T04:30:58.765Z,3.13
2022-11-03T04:33:26.727Z,3.13
2022-11-03T04:35:55.514Z,3.19
2022-11-03T04:38:23.705Z,3.31
2022-11-03T04:40:55.152Z,3.30
2022-11-03T04:43:24.023Z,3.33
2022-11-03T04:45:51.292Z,3.42
2022-11-03T04:48:21.411Z,3.42
2022-11-03T04:50:49.607Z,3.42
2022-11-03T04:53:17.648Z,3.61
2022-11-03T04:55:45.404Z,3.90
2022-11-03T04:58:34.980Z,3.94
2022-11-03T05:01:03.159Z,3.96
2022-11-03T05:03:32.558Z,3.72
2022-11-03T05:06:01.902Z,3.65
2022-11-03T05:08:28.875Z,3.58
2022-11-03T05:10:56.175Z,3.43
2022-11-03T05:13:27.744Z,3.33
2022-11-03T05:15:59.217Z,3.22
2022-11-03T05:18:29.800Z,3.13
2022-11-03T05:20:57.028Z,3.03
2022-11-03T05:23:24.145Z,2.92
2022-11-03T05:25:52.859Z,2.86
2022-11-03T05:28:27.222Z,3.05
2022-11-03T05:30:54.680Z,3.00
2022-11-03T05:33:32.938Z,2.98
2022-11-03T05:36:06.167Z,2.83
2022-11-03T05:38:34.172Z,2.72
2022-11-03T05:41:01.692Z,2.59
2022-11-03T05:43:29.841Z,2.36
2022-11-03T05:45:58.448Z,2.13
2022-11-03T05:48:25.798Z,2.09
2022-11-03T05:50:53.088Z,2.01
2022-11-03T05:53:29.302Z,2.01
2022-11-03T05:55:57.391Z,1.98
2022-11-03T05:58:30.803Z,2.05
2022-11-03T06:00:59.030Z,2.02
2022-11-03T06:03:30.194Z,2.22
2022-11-03T06:05:58.670Z,2.28
2022-11-03T06:08:29.382Z,2.47
2022-11-03T06:10:58.406Z,2.73
2022-11-03T06:13:25.983Z,2.69
2022-11-03T06:16:18.384Z,2.73
2022-11-03T06:18:45.633Z,2.82
2022-11-03T06:21:16.583Z,2.88
2022-11-03T06:23:43.947Z,2.87
2022-11-03T06:26:16.732Z,2.88
2022-11-03T06:28:44.484Z,2.95
2022-11-03T06:31:23.145Z,2.95
2022-11-03T06:33:52.020Z,3.02
2022-11-03T06:36:20.898Z,3.28
2022-11-03T06:38:50.498Z,3.42
2022-11-03T06:41:28.217Z,3.70
2022-11-03T06:43:55.942Z,3.83
2022-11-03T06:46:24.395Z,3.78
2022-11-03T06:48:52.395Z,3.73
2022-11-03T06:51:20.887Z,3.52
2022-11-03T06:53:48.195Z,3.08
2022-11-03T06:56:16.968Z,3.12
2022-11-03T06:58:44.375Z,3.17
2022-11-03T07:01:16.434Z,3.25
2022-11-03T07:03:43.459Z,3.34
2022-11-03T07:06:10.579Z,3.39
2022-11-03T07:08:39.552Z,3.47
2022-11-03T07:11:26.958Z,3.36
2022-11-03T07:13:56.781Z,3.50
2022-11-03T07:16:32.622Z,3.57
2022-11-03T07:19:00.953Z,3.61
2022-11-03T07:21:31.118Z,3.60
2022-11-03T07:24:00.362Z,3.56
2022-11-03T07:26:27.888Z,3.42
2022-11-03T07:28:55.092Z,3.44
2022-11-03T07:31:23.904Z,3.39
2022-11-03T07:33:55.738Z,3.60
2022-11-03T07:36:24.428Z,3.84
2022-11-03T07:38:52.878Z,3.98
2022-11-03T07:41:21.826Z,4.04
2022-11-03T07:43:52.740Z,4.18
2022-11-03T07:46:20.678Z,4.29
2022-11-03T07:48:48.606Z,4.46
2022-11-03T07:51:15.765Z,4.44
2022-11-03T07:54:05.855Z,4.78
2022-11-03T07:56:35.693Z,4.81
2022-11-03T07:59:08.851Z,4.93
2022-11-03T08:01:37.326Z,4.85
2022-11-03T08:04:06.109Z,4.92
2022-11-03T08:06:33.300Z,4.93
2022-11-03T08:09:00.620Z,5.08
2022-11-03T08:11:29.455Z,5.36
2022-11-03T08:13:57.484Z,5.27
2022-11-03T08:16:24.483Z,5.65
2022-11-03T08:18:51.771Z,5.92
2022-11-03T08:21:18.719Z,6.28
2022-11-03T08:23:47.663Z,6.52
2022-11-03T08:26:15.243Z,6.42
2022-11-03T08:28:42.939Z,6.66
2022-11-03T08:31:12.987Z,6.93
2022-11-03T08:33:40.906Z,7.32
2022-11-03T08:36:11.547Z,7.04
2022-11-03T08:38:39.050Z,6.99
2022-11-03T08:41:06.081Z,7.26
2022-11-03T08:43:33.662Z,7.62
2022-11-03T08:46:08.189Z,8.01
2022-11-03T08:48:40.545Z,8.28
2022-11-03T08:51:08.600Z,8.49
2022-11-03T08:53:35.972Z,8.53
2022-11-03T08:56:02.875Z,8.30
2022-11-03T08:58:30.282Z,8.16
2022-11-03T09:00:57.537Z,7.91
2022-11-03T09:03:25.124Z,8.19
2022-11-03T09:05:52.034Z,8.38
2022-11-03T09:11:06.131Z,8.51
2022-11-03T09:13:33.586Z,8.60
2022-11-03T09:16:00.483Z,8.60
2022-11-03T09:18:27.410Z,8.53
2022-11-03T09:20:54.682Z,8.44
2022-11-03T09:23:21.972Z,8.49
2022-11-03T09:25:48.959Z,8.56
2022-11-03T09:28:16.106Z,8.54
2022-11-03T09:30:43.060Z,8.52
2022-11-03T09:33:10.343Z,8.82
2022-11-03T09:35:37.299Z,8.54
2022-11-03T09:38:05.311Z,8.86
2022-11-03T09:40:32.367Z,8.74
2022-11-03T09:42:59.670Z,8.72
2022-11-03T09:45:26.505Z,8.59
2022-11-03T09:47:53.863Z,8.55
2022-11-03T09:50:21.391Z,8.50
2022-11-03T09:52:51.767Z,8.82
2022-11-03T09:55:27.885Z,8.96
2022-11-03T09:57:59.229Z,8.86
2022-11-03T10:00:27.481Z,8.97
2022-11-03T10:02:55.563Z,8.93
2022-11-03T10:05:26.637Z,9.15
2022-11-03T10:07:56.764Z,8.84
2022-11-03T10:10:24.665Z,9.12
2022-11-03T10:12:53.387Z,9.07
2022-11-03T10:15:22.293Z,9.00
2022-11-03T10:17:50.809Z,9.12
2022-11-03T10:20:19.158Z,9.19
2022-11-03T10:22:46.822Z,9.08
2022-11-03T10:25:32.414Z,9.28
2022-11-03T10:28:14.914Z,9.62
2022-11-03T10:31:10.057Z,9.83
2022-11-03T10:33:37.697Z,9.86
2022-11-03T10:36:20.247Z,10.17
2022-11-03T10:38:48.132Z,9.81
2022-11-03T10:41:21.371Z,9.77
2022-11-03T10:44:26.651Z,9.54
2022-11-03T10:47:03.005Z,9.88
2022-11-03T10:49:35.547Z,9.90
2022-11-03T10:52:27.777Z,9.89
2022-11-03T10:54:56.487Z,9.75
2022-11-03T10:57:24.503Z,9.47
2022-11-03T10:59:53.263Z,9.55
2022-11-03T11:02:25.925Z,9.41
2022-11-03T11:04:56.414Z,9.60
2022-11-03T11:07:26.464Z,9.47
2022-11-03T11:09:54.047Z,9.46
2022-11-03T11:12:25.168Z,9.43
2022-11-03T11:14:56.751Z,9.46
2022-11-03T11:17:42.343Z,9.71
2022-11-03T11:20:28.306Z,9.75
2022-11-03T11:22:55.827Z,9.66
2022-11-03T11:25:42.900Z,9.73
2022-11-03T11:28:18.315Z,9.81
2022-11-03T11:30:56.208Z,10.00
2022-11-03T11:33:24.511Z,10.04
2022-11-03T11:35:54.019Z,9.96
2022-11-03T11:38:43.924Z,10.00
2022-11-03T11:41:11.011Z,10.17
2022-11-03T11:43:38.351Z,10.13
2022-11-03T11:46:20.504Z,10.21
2022-11-03T11:49:03.080Z,10.32
2022-11-03T11:51:36.297Z,10.48
2022-11-03T11:54:17.941Z,10.47
2022-11-03T11:56:46.831Z,10.48
2022-11-03T11:59:24.356Z,10.57
2022-11-03T12:01:55.553Z,10.62
2022-11-03T12:04:24.490Z,10.42
2022-11-03T12:06:51.324Z,10.33
2022-11-03T12:09:18.851Z,10.30
2022-11-03T12:11:46.949Z,10.18
2022-11-03T12:14:44.452Z,10.42
2022-11-03T12:17:14.473Z,10.42
2022-11-03T12:19:41.587Z,10.34
2022-11-03T12:22:29.320Z,10.43
2022-11-03T12:24:59.525Z,10.37
2022-11-03T12:27:26.914Z,10.52
2022-11-03T12:29:54.946Z,10.55
2022-11-03T12:32:32.941Z,10.37
2022-11-03T12:35:01.553Z,10.22
2022-11-03T12:37:29.045Z,10.22
2022-11-03T12:39:55.897Z,10.25
2022-11-03T12:42:25.138Z,10.09
2022-11-03T12:44:53.280Z,9.98
2022-11-03T12:47:20.816Z,10.09
2022-11-03T12:49:47.890Z,10.09
2022-11-03T12:52:15.306Z,10.15
2022-11-03T12:54:44.885Z,10.02
2022-11-03T12:57:12.192Z,10.06
2022-11-03T12:59:39.055Z,10.22
2022-11-03T13:02:06.559Z,10.32
2022-11-03T13:04:33.493Z,10.43
2022-11-03T13:07:00.771Z,10.48
2022-11-03T13:09:29.668Z,10.62
2022-11-03T13:12:15.274Z,10.49
2022-11-03T13:14:45.932Z,10.52
2022-11-03T13:17:15.970Z,10.62
2022-11-03T13:19:42.950Z,10.60
2022-11-03T13:22:10.692Z,10.48
2022-11-03T13:24:37.729Z,10.56
2022-11-03T13:27:05.007Z,10.53
2022-11-03T13:29:35.453Z,10.56
2022-11-03T13:32:03.780Z,10.37
2022-11-03T13:34:31.066Z,10.48
2022-11-03T13:36:59.045Z,10.52
2022-11-03T13:39:26.449Z,10.43
2022-11-03T13:41:53.760Z,10.44
2022-11-03T13:44:21.363Z,10.18
2022-11-03T13:46:48.707Z,10.28
2022-11-03T13:52:03.605Z,10.33
2022-11-03T14:00:07.019Z,10.49
2022-11-03T14:05:21.201Z,10.21
2022-11-03T14:07:48.652Z,10.15
2022-11-03T14:10:15.574Z,10.08
2022-11-03T14:12:42.894Z,10.11
2022-11-03T14:15:11.310Z,9.89
2022-11-03T14:17:39.733Z,10.02
2022-11-03T14:20:09.624Z,10.10
2022-11-03T14:22:36.976Z,10.06
2022-11-03T14:25:04.004Z,9.63
2022-11-03T14:27:31.293Z,9.69
2022-11-03T14:29:58.185Z,9.68
2022-11-03T14:32:25.470Z,9.80
2022-11-03T14:34:52.426Z,9.74
2022-11-03T14:37:19.772Z,9.50
2022-11-03T14:39:46.738Z,9.55
2022-11-03T14:42:17.535Z,9.43
2022-11-03T14:44:45.731Z,9.40
2022-11-03T14:47:21.804Z,9.22
2022-11-03T14:49:49.282Z,9.32
2022-11-03T14:52:16.485Z,9.33
2022-11-03T14:54:43.417Z,9.26
2022-11-03T14:57:10.915Z,9.51
2022-11-03T14:59:37.935Z,9.57
2022-11-03T15:02:06.078Z,9.36
2022-11-03T15:04:33.455Z,9.07
2022-11-03T15:07:00.770Z,8.92
2022-11-03T15:09:27.729Z,9.15
2022-11-03T15:11:54.689Z,9.21
2022-11-03T15:14:21.948Z,9.25
2022-11-03T15:16:48.861Z,9.26
2022-11-03T15:19:15.810Z,9.21
2022-11-03T15:21:43.219Z,9.14
2022-11-03T15:26:57.639Z,8.96
2022-11-03T15:29:24.590Z,8.98
2022-11-03T15:31:51.871Z,9.00
2022-11-03T15:34:18.977Z,8.99
2022-11-03T15:36:46.156Z,9.00
2022-11-03T15:39:13.670Z,8.96
2022-11-03T15:41:41.573Z,8.86
2022-11-03T15:44:08.527Z,8.72
2022-11-03T15:46:36.132Z,8.64
2022-11-03T15:49:03.786Z,8.43
2022-11-03T15:51:30.984Z,8.22
2022-11-03T15:53:59.515Z,8.00
2022-11-03T15:56:27.334Z,7.90
2022-11-03T15:58:54.476Z,7.89
2022-11-03T16:01:22.125Z,7.61
2022-11-03T16:03:49.291Z,7.71
2022-11-03T16:06:16.568Z,7.50
2022-11-03T16:08:43.703Z,7.63
2022-11-03T16:11:10.648Z,7.72
2022-11-03T16:13:37.890Z,7.56
2022-11-03T16:16:04.978Z,7.66
2022-11-03T16:18:32.197Z,7.88
2022-11-03T16:20:59.217Z,7.96
2022-11-03T16:23:26.806Z,7.94
2022-11-03T16:25:54.147Z,7.93
2022-11-03T16:28:21.953Z,7.81
2022-11-03T16:30:54.091Z,7.73
2022-11-03T16:33:22.362Z,7.58
2022-11-03T16:35:50.745Z,7.26
2022-11-03T16:38:17.980Z,7.39
2022-11-03T16:40:44.919Z,7.41
2022-11-03T16:43:12.459Z,7.46
2022-11-03T16:45:39.369Z,7.45
2022-11-03T16:48:07.572Z,7.46
2022-11-03T16:50:34.928Z,7.41
2022-11-03T16:53:03.071Z,7.37
2022-11-03T16:55:30.372Z,7.26
2022-11-03T16:57:57.687Z,7.09
2022-11-03T17:00:24.683Z,6.99
2022-11-03T17:02:52.315Z,6.91
2022-11-03T17:05:20.937Z,6.94
2022-11-03T17:07:53.156Z,6.80
2022-11-03T17:10:20.962Z,6.94
2022-11-03T17:12:48.158Z,6.98
2022-11-03T17:15:15.122Z,6.92
2022-11-03T17:17:42.465Z,6.92
2022-11-03T17:20:10.713Z,6.96
2022-11-03T17:22:38.218Z,6.95
2022-11-03T17:25:06.041Z,6.88
2022-11-03T17:27:38.577Z,6.92
2022-11-03T17:30:06.939Z,6.82
2022-11-03T17:32:39.631Z,6.87
2022-11-03T17:35:18.064Z,6.87
2022-11-03T17:37:45.402Z,6.79
2022-11-03T17:40:23.704Z,6.71
2022-11-03T17:42:51.364Z,6.69
2022-11-03T17:45:19.802Z,6.68
2022-11-03T17:47:47.274Z,6.49
2022-11-03T17:50:17.415Z,6.63
2022-11-03T17:52:46.751Z,6.63
2022-11-03T17:55:26.671Z,6.55
2022-11-03T17:57:55.297Z,6.50
2022-11-03T18:00:22.850Z,6.50
2022-11-03T18:02:50.891Z,6.41
2022-11-03T18:05:22.001Z,6.28
2022-11-03T18:07:50.284Z,6.36
2022-11-03T18:10:17.360Z,6.22
2022-11-03T18:13:04.408Z,6.26
2022-11-03T18:15:32.637Z,6.27
2022-11-03T18:18:00.600Z,6.18
2022-11-03T18:20:29.592Z,6.24
2022-11-03T18:23:14.403Z,6.22
2022-11-03T18:25:41.570Z,6.12
2022-11-03T18:28:09.486Z,6.13
2022-11-03T18:30:37.825Z,6.07
2022-11-03T18:33:05.691Z,6.10
2022-11-03T18:35:34.606Z,6.01
2022-11-03T18:38:03.824Z,5.95
2022-11-03T18:40:34.231Z,5.90
2022-11-03T18:43:01.850Z,5.96
2022-11-03T18:45:28.755Z,6.05
2022-11-03T18:47:56.692Z,6.04
2022-11-03T18:50:23.653Z,6.02
2022-11-03T18:52:52.376Z,6.11
2022-11-03T18:55:19.479Z,6.05
2022-11-03T18:57:47.089Z,6.03
2022-11-03T19:00:16.890Z,5.93
2022-11-03T19:02:44.723Z,5.82
2022-11-03T19:05:15.638Z,5.93
2022-11-03T19:07:44.406Z,6.01
2022-11-03T19:10:13.847Z,6.02
2022-11-03T19:12:43.812Z,6.09
2022-11-03T19:15:21.711Z,6.15
2022-11-03T19:17:50.526Z,6.13
2022-11-03T19:20:18.528Z,6.12
2022-11-03T19:22:46.372Z,6.10
2022-11-03T19:25:14.939Z,6.12
2022-11-03T19:27:44.551Z,6.08
2022-11-03T19:30:16.486Z,6.00
2022-11-03T19:32:45.653Z,6.06
2022-11-03T19:35:12.739Z,5.89
2022-11-03T19:37:39.901Z,5.84
2022-11-03T19:40:09.255Z,5.73
2022-11-03T19:42:37.099Z,5.73
2022-11-03T19:45:06.760Z,5.56
2022-11-03T19:47:36.037Z,5.51
2022-11-03T19:50:04.664Z,5.57
2022-11-03T19:52:32.633Z,5.37
2022-11-03T19:55:05.764Z,5.37
2022-11-03T19:57:32.940Z,5.31
2022-11-03T20:00:01.771Z,5.57
2022-11-03T20:02:29.385Z,5.61
2022-11-03T20:04:57.230Z,5.50
2022-11-03T20:07:30.957Z,5.31
2022-11-03T20:10:00.243Z,5.28
2022-11-03T20:12:27.266Z,5.35
2022-11-03T20:14:54.531Z,5.54
2022-11-03T20:17:23.409Z,5.48
2022-11-03T20:19:52.295Z,5.40
2022-11-03T20:22:30.127Z,5.37
2022-11-03T20:24:59.679Z,5.41
2022-11-03T20:27:26.751Z,5.56
2022-11-03T20:29:54.212Z,5.64
2022-11-03T20:32:21.275Z,5.65
2022-11-03T20:34:48.223Z,5.57
2022-11-03T20:37:19.727Z,5.60
2022-11-03T20:39:47.842Z,5.56
2022-11-03T20:42:20.587Z,5.57
2022-11-03T20:44:47.648Z,5.58
2022-11-03T20:47:15.528Z,5.51
2022-11-03T20:49:42.516Z,5.55
2022-11-03T20:52:12.874Z,5.39
2022-11-03T20:54:40.699Z,5.25
2022-11-03T20:57:09.803Z,5.45
2022-11-03T20:59:38.692Z,5.58
2022-11-03T21:02:10.784Z,5.70
2022-11-03T21:04:40.370Z,5.69
2022-11-03T21:07:10.127Z,5.71
2022-11-03T21:09:37.078Z,5.61
2022-11-03T21:12:04.829Z,5.59
2022-11-03T21:14:33.118Z,5.39
2022-11-03T21:17:19.154Z,5.44
2022-11-03T21:20:09.573Z,5.45
2022-11-03T21:22:53.743Z,5.64
2022-11-03T21:25:22.532Z,5.83
2022-11-03T21:27:49.887Z,5.85
2022-11-03T21:30:17.682Z,5.92
2022-11-03T21:32:48.060Z,5.79
2022-11-03T21:35:19.457Z,5.84
2022-11-03T21:37:47.304Z,5.87
2022-11-03T21:40:14.398Z,5.83
2022-11-03T21:43:00.430Z,5.89
2022-11-03T21:45:27.448Z,5.95
2022-11-03T21:48:14.598Z,5.98
2022-11-03T21:50:42.205Z,6.05
2022-11-03T21:53:10.321Z,5.98
2022-11-03T21:55:37.619Z,6.01
2022-11-03T21:58:05.181Z,5.89
2022-11-03T22:00:32.530Z,5.93
2022-11-03T22:03:00.470Z,5.87
2022-11-03T22:05:27.783Z,5.66
2022-11-03T22:07:55.422Z,5.67
2022-11-03T22:10:22.858Z,5.54
2022-11-03T22:12:50.047Z,5.47
2022-11-03T22:15:35.754Z,5.57
2022-11-03T22:18:03.829Z,5.40
2022-11-03T22:20:49.094Z,5.41
2022-11-03T22:23:34.751Z,5.39
2022-11-03T22:26:20.445Z,5.26
2022-11-03T22:29:07.654Z,5.18
2022-11-03T22:31:40.822Z,5.33
2022-11-03T22:34:26.634Z,5.29
2022-11-03T22:36:53.602Z,5.26
2022-11-03T22:39:39.371Z,5.45
2022-11-03T22:42:24.855Z,5.53
2022-11-03T22:45:10.419Z,5.48
2022-11-03T22:47:37.366Z,5.40
2022-11-03T22:50:04.684Z,5.49
2022-11-03T22:52:31.570Z,5.34
2022-11-03T22:54:58.739Z,5.12
2022-11-03T22:57:25.633Z,5.11
2022-11-03T22:59:52.880Z,5.16
2022-11-03T23:02:19.843Z,5.03
2022-11-03T23:04:47.100Z,5.07
2022-11-03T23:07:13.997Z,4.94
2022-11-03T23:09:41.327Z,5.16
2022-11-03T23:12:08.167Z,5.18
2022-11-03T23:14:53.451Z,5.25
2022-11-03T23:17:40.567Z,5.11
2022-11-03T23:20:26.955Z,4.93
2022-11-03T23:22:54.101Z,4.92
2022-11-03T23:25:20.918Z,4.83
2022-11-03T23:27:48.115Z,4.87
2022-11-03T23:30:14.956Z,4.86
2022-11-03T23:32:42.186Z,4.89
2022-11-03T23:35:09.464Z,4.96
2022-11-03T23:37:36.702Z,4.84
2022-11-03T23:40:05.135Z,4.95
2022-11-03T23:42:32.051Z,5.01
2022-11-03T23:45:18.185Z,4.86
2022-11-03T23:48:03.512Z,4.96
2022-11-03T23:50:30.755Z,4.99
2022-11-03T23:52:57.721Z,5.01
2022-11-03T23:55:25.015Z,4.90
2022-11-03T23:58:10.844Z,4.98
